Flight Track Log - Related Links

Times and Time Zones

All times are in EDT time to prevent confusion due to time zone crossing. See the GJS3710 flight status page for this flight to view local times or setup timezone preferences in your user account.

Time Position Orientation Groundspeed Altitude Reporting Facility
EDT Latitude Longitude Course Direction KTS MPH feet Rate Location/Type
Thu 09:06:24 PM 42.0000 -87.9500 90° East 156 180 1,700  Level Chicago TRACON
Thu 09:07:18 PM 42.0333 -87.9167 37° Northeast 221 254 3,100 2,105 Climbing Chicago TRACON
Thu 09:08:18 PM 42.0833 -87.8500 45° Northeast 270 311 5,700 2,678 Climbing Chicago TRACON
Thu 09:09:00 PM 42.1724 -87.3329 66° East  Level FlightAware Approximate
Thu 09:09:19 PM 42.1167 -87.7500 66° East 288 331 8,500  Level Chicago TRACON
Thu 09:10:00 PM 42.2214 -87.1859 66° East  Level FlightAware Approximate
Thu 09:10:14 PM 42.1292 -87.6761 77° East 291 335 10,600  Level Chicago Center
Thu 09:11:00 PM 42.2667 -87.0377 90° East  Level FlightAware Approximate
Thu 09:11:16 PM 42.1631 -87.5383 72° East 325 374 12,800  Level Chicago Center
Thu 09:12:18 PM 42.1958 -87.4072 71° East 366 421 14,700 1,887 Climbing Chicago Center
Thu 09:13:20 PM 42.2283 -87.2711 72° East 380 437 16,700 1,790 Climbing Chicago Center
Thu 09:14:22 PM 42.2622 -87.1308 72° East 392 451 18,400 1,790 Climbing Chicago Center
Thu 09:15:24 PM 42.2828 -86.9806 79° East 408 470 20,400 1,839 Climbing Chicago Center
Thu 09:16:26 PM 42.2881 -86.8236 87° East 419 482 22,200 1,694 Climbing Chicago Center
Thu 09:17:28 PM 42.2956 -86.6356 87° East 433 498 23,900 1,548 Climbing Chicago Center
Thu 09:18:30 PM 42.3019 -86.4800 87° East 440 506 25,400 1,452 Climbing Chicago Center
Thu 09:19:32 PM 42.3072 -86.3131 87° East 445 512 26,900 1,306 Climbing Chicago Center
Thu 09:20:34 PM 42.3136 -86.1097 87° East 455 524 28,100 1,056 Climbing Chicago Center
Thu 09:21:37 PM 42.3119 -85.9333 91° East 471 542 29,100 960 Climbing Chicago Center
Thu 09:22:39 PM 42.3108 -85.7544 90° East 479 551 30,100 968 Climbing Chicago Center
Thu 09:23:41 PM 42.3081 -85.5747 91° East 482 555 31,100 968 Climbing Chicago Center
Thu 09:24:43 PM 42.3058 -85.3914 91° East 489 563 32,100 968 Climbing Chicago Center
Thu 09:25:14 PM 42.3056 -85.2867 90° East 491 565 32,600 857 Climbing Cleveland Center
Thu 09:26:14 PM 42.3047 -85.0983 90° East 496 571 33,400 800 Climbing Cleveland Center
Thu 09:27:14 PM 42.2994 -84.9125 92° East 501 577 34,200 800 Climbing Cleveland Center
Thu 09:28:14 PM 42.3083 -84.7250 86° East 501 577 35,000 400 Climbing Cleveland Center
Thu 09:29:14 PM 42.3133 -84.5258 88° East 496 571 35,000  Level Cleveland Center
Thu 09:30:14 PM 42.3258 -84.3383 85° East 491 565 35,000 450 Level Cleveland Center
Thu 09:31:14 PM 42.3358 -84.1564 86° East 496 571 35,900 900 Climbing Cleveland Center
Thu 09:32:14 PM 42.3456 -83.9714 86° East 496 571 36,800 550 Climbing Cleveland Center
Thu 09:33:14 PM 42.3550 -83.7864 86° East 496 571 37,000 100 Climbing Cleveland Center
Thu 09:34:14 PM 42.3622 -83.5956 87° East 496 571 37,000  Level Cleveland Center
Thu 09:35:14 PM 42.3733 -83.4078 85° East 501 577 37,000  Level Cleveland Center
Thu 09:36:14 PM 42.3794 -83.2367 87° East 501 577 37,000  Level Cleveland Center
Thu 09:37:14 PM 42.3900 -83.0517 86° East 501 577 37,000  Level Cleveland Center
Thu 09:38:15 PM 42.3958 -82.8661 88° East 496 571 37,000  Level Cleveland Center
Thu 09:39:14 PM 42.4036 -82.6808 87° East 491 565 37,000  Level Cleveland Center
Thu 09:40:14 PM 42.4111 -82.4928 87° East 496 571 37,000  Level Cleveland Center
Thu 09:41:14 PM 42.4181 -82.3072 87° East 496 571 37,000  Level Cleveland Center
Thu 09:42:14 PM 42.4272 -82.1022 86° East 496 571 37,000  Level Cleveland Center
Thu 09:43:14 PM 42.4317 -81.9139 88° East 491 565 37,000  Level Cleveland Center
Thu 09:44:14 PM 42.4400 -81.7256 87° East 496 571 37,000  Level Cleveland Center
Thu 09:45:14 PM 42.4458 -81.5369 88° East 496 571 37,000  Level Cleveland Center
Thu 09:46:14 PM 42.4494 -81.3428 88° East 497 572 37,000  Level Cleveland Center
Thu 09:47:14 PM 42.4547 -81.1572 88° East 497 572 37,000  Level Cleveland Center
Thu 09:48:14 PM 42.4594 -80.9717 88° East 491 565 37,000  Level Cleveland Center
Thu 09:49:14 PM 42.4661 -80.8056 87° East 491 565 37,000  Level Cleveland Center
Thu 09:50:14 PM 42.4706 -80.6169 88° East 498 573 37,000  Level Cleveland Center
Thu 09:51:14 PM 42.4725 -80.4339 89° East 493 567 37,000  Level Cleveland Center
Thu 09:52:15 PM 42.4764 -80.2453 88° East 493 567 37,000  Level Cleveland Center
Thu 09:53:15 PM 42.4800 -80.0625 88° East 491 565 37,000  Level Cleveland Center
Thu 09:54:15 PM 42.4850 -79.8569 88° East 491 565 37,000  Level Cleveland Center
Thu 09:55:14 PM 42.4858 -79.6739 90° East 491 565 37,000  Level Cleveland Center
Thu 09:56:14 PM 42.4906 -79.4878 88° East 491 565 37,000 -50 Level Cleveland Center
Thu 09:57:15 PM 42.4906 -79.3078 90° East 491 565 36,900 -545 Descending Cleveland Center
Thu 09:58:15 PM 42.5031 -79.1214 85° East 491 565 35,900 -958 Descending Cleveland Center
Thu 09:59:14 PM 42.5153 -78.9381 85° East 496 571 35,000 -454 Descending Cleveland Center
Thu 10:00:14 PM 42.5269 -78.7575 85° East 496 571 35,000  Level Cleveland Center
Thu 10:01:15 PM 42.5386 -78.5739 85° East 491 565 35,000  Level Cleveland Center
Thu 10:02:14 PM 42.5497 -78.3875 85° East 491 565 35,000 -250 Level Cleveland Center
Thu 10:03:15 PM 42.5628 -78.2039 84° East 491 565 34,500 -942 Descending Cleveland Center
Thu 10:04:15 PM 42.5736 -78.0203 85° East 491 565 33,100 -1,200 Descending Cleveland Center
Thu 10:05:15 PM 42.5839 -77.8392 86° East 486 559 32,100 -950 Descending Cleveland Center
Thu 10:06:15 PM 42.5947 -77.6808 85° East 479 551 31,200 -555 Descending Cleveland Center
Thu 10:07:14 PM 42.6044 -77.4969 86° East 479 551 31,000 -100 Descending Cleveland Center
Thu 10:08:15 PM 42.6139 -77.3075 86° East 484 557 31,000  Level Cleveland Center
Thu 10:09:15 PM 42.6231 -77.1208 86° East 490 564 31,000  Level Cleveland Center
Thu 10:09:40 PM 42.6292 -77.0208 85° East 486 559 31,000 -282 Level Boston Center
Thu 10:10:40 PM 42.6378 -76.8522 86° East 505 581 30,600 -700 Descending Boston Center
Thu 10:11:40 PM 42.6469 -76.6636 86° East 505 581 29,600 -1,000 Descending Boston Center
Thu 10:12:40 PM 42.6558 -76.4778 86° East 498 573 28,600 -1,100 Descending Boston Center
Thu 10:13:40 PM 42.6642 -76.2975 86° East 488 562 27,400 -1,400 Descending Boston Center
Thu 10:14:40 PM 42.6719 -76.1256 86° East 469 540 25,800 -1,900 Descending Boston Center
Thu 10:15:40 PM 42.6803 -75.9283 87° East 464 534 23,600 -2,000 Descending Boston Center
Thu 10:16:40 PM 42.6875 -75.7564 87° East 464 534 21,800 -1,700 Descending Boston Center
Thu 10:17:40 PM 42.6925 -75.5872 88° East 457 526 20,200 -1,600 Descending Boston Center
Thu 10:18:40 PM 42.6989 -75.4236 87° East 446 513 18,600 -1,450 Descending Boston Center
Thu 10:19:40 PM 42.7072 -75.2600 86° East 440 506 17,300 -1,450 Descending Boston Center
Thu 10:20:40 PM 42.7108 -75.1075 88° East 422 486 15,700 -1,600 Descending Boston Center
Thu 10:21:40 PM 42.7164 -74.9636 87° East 396 456 14,100 -1,600 Descending Boston Center
Thu 10:22:40 PM 42.7214 -74.8225 87° East 383 441 12,500 -1,500 Descending Boston Center
Thu 10:23:40 PM 42.7219 -74.6953 90° East 364 419 11,100 -900 Descending Boston Center
Thu 10:24:20 PM 42.7258 -74.5939 87° East 356 410 11,000 -100 Descending Boston Center
Thu 10:24:40 PM 42.7269 -74.5486 88° East 359 413 11,000 -100 Level Boston Center
Thu 10:25:20 PM 42.7306 -74.4639 87° East 348 400 10,900 -200 Descending Boston Center
Thu 10:25:40 PM 42.7225 -74.4353 111° Southeast 340 391 10,800 -1,050 Descending Boston Center
Thu 10:26:40 PM 42.6933 -74.3214 109° East 302 348 9,500 -1,294 Descending Boston Center
Thu 10:27:22 PM 42.6756 -74.2531 109° East 285 328 8,600 -1,300 Descending Boston Center
Thu 10:27:40 PM 42.6697 -74.2303 109° East 287 330 8,200 -1,462 Descending Boston Center
Thu 10:28:40 PM 42.6422 -74.1253 110° East 273 314 6,700 -1,450 Descending Boston Center
Thu 10:29:40 PM 42.6225 -74.0372 107° East 261 300 5,300 -1,273 Descending Boston Center
Thu 10:30:52 PM 42.6158 -73.9297 95° East 242 278 3,900 -1,269 Descending Boston Center
Thu 10:31:24 PM 42.6142 -73.8872 93° East 198 228 3,100 -1,300 Descending Boston Center
Thu 10:31:52 PM 42.6167 -73.8564 84° East 215 247 2,600 -1,082 Descending Boston Center
Thu 10:32:25 PM 42.6233 -73.8228 75° East 162 186 2,000 -200 Descending Boston Center
Thu 10:32:52 PM 42.6092 -73.7858 118° Southeast 207 238 2,400 889 Climbing Boston Center

Login

Don't have an account? Register now (free) for customized features, flight alerts, and more!